Clay Center, Kansas
Current Conditions -  °F | °C
As of 11:52 AM on Thursday 18 Dec 2014 (Local Time) from KMHK Reporting Station
Overcast Overcast  
Wind Chill: 33°   Ceiling: 1500
Heat Index: 33°   Visibility: 8mi
Dew Point: 28°   Wind: 0mph
Humidity: 82%   Direction: NA
Pressure: 30.22"   Gusts: NA
Location:  39.38°N, 97.12°W
Report Text: KMHK 181752Z 00000KT 8SM OVC015 01/M02 A3022 RMK AO2 SLP245 60001 T00061022 10006 21028 58001
Loading
Personal Weather Stations






























Interactive Weather Map New forecast layout! Learn more

10-Day Weather Forecast

Advertisements
Track Severe Weather on mobile